sensor_id;sensor_type;location;lat;lon;timestamp;temperature;humidity
49242;DHT22;35079;52.704;13.814;2023-04-25T00:02:02;7.50;99.90
49242;DHT22;35079;52.704;13.814;2023-04-25T00:04:29;7.50;99.90
49242;DHT22;35079;52.704;13.814;2023-04-25T00:06:55;7.40;99.90
49242;DHT22;35079;52.704;13.814;2023-04-25T00:09:21;7.50;99.90
49242;DHT22;35079;52.704;13.814;2023-04-25T00:11:47;7.40;99.90
49242;DHT22;35079;52.704;13.814;2023-04-25T00:14:14;7.40;99.90
49242;DHT22;35079;52.704;13.814;2023-04-25T00:16:39;7.50;99.90
49242;DHT22;35079;52.704;13.814;2023-04-25T00:19:06;7.40;99.90
49242;DHT22;35079;52.704;13.814;2023-04-25T00:21:32;7.40;99.90
49242;DHT22;35079;52.704;13.814;2023-04-25T00:23:58;7.50;99.90
49242;DHT22;35079;52.704;13.814;2023-04-25T00:26:24;7.20;99.90
49242;DHT22;35079;52.704;13.814;2023-04-25T00:28:50;7.20;99.90
49242;DHT22;35079;52.704;13.814;2023-04-25T00:31:16;7.30;99.90
49242;DHT22;35079;52.704;13.814;2023-04-25T00:33:41;7.20;99.90
49242;DHT22;35079;52.704;13.814;2023-04-25T00:36:07;7.30;99.90
49242;DHT22;35079;52.704;13.814;2023-04-25T00:38:33;7.20;99.90
49242;DHT22;35079;52.704;13.814;2023-04-25T00:40:59;7.30;99.90
49242;DHT22;35079;52.704;13.814;2023-04-25T00:43:26;7.20;99.90
49242;DHT22;35079;52.704;13.814;2023-04-25T00:45:52;7.20;99.90
49242;DHT22;35079;52.704;13.814;2023-04-25T00:48:18;7.30;99.90
49242;DHT22;35079;52.704;13.814;2023-04-25T00:50:52;7.20;99.90
49242;DHT22;35079;52.704;13.814;2023-04-25T00:53:18;7.20;99.90
49242;DHT22;35079;52.704;13.814;2023-04-25T00:55:44;7.20;99.90
49242;DHT22;35079;52.704;13.814;2023-04-25T00:58:10;7.30;99.90
49242;DHT22;35079;52.704;13.814;2023-04-25T01:00:36;7.20;99.90
49242;DHT22;35079;52.704;13.814;2023-04-25T01:03:02;7.30;99.90
49242;DHT22;35079;52.704;13.814;2023-04-25T01:05:29;7.40;99.90
49242;DHT22;35079;52.704;13.814;2023-04-25T01:07:54;7.30;99.90
49242;DHT22;35079;52.704;13.814;2023-04-25T01:10:21;7.30;99.90
49242;DHT22;35079;52.704;13.814;2023-04-25T01:12:47;7.30;99.90
49242;DHT22;35079;52.704;13.814;2023-04-25T01:15:12;7.60;99.90
49242;DHT22;35079;52.704;13.814;2023-04-25T01:17:38;7.60;99.90
49242;DHT22;35079;52.704;13.814;2023-04-25T01:20:07;7.80;99.90
49242;DHT22;35079;52.704;13.814;2023-04-25T01:22:34;7.80;99.90
49242;DHT22;35079;52.704;13.814;2023-04-25T01:25:00;7.90;99.90
49242;DHT22;35079;52.704;13.814;2023-04-25T01:27:26;8.00;99.90
49242;DHT22;35079;52.704;13.814;2023-04-25T01:29:54;8.10;99.90
49242;DHT22;35079;52.704;13.814;2023-04-25T01:32:20;8.00;99.90
49242;DHT22;35079;52.704;13.814;2023-04-25T01:34:46;7.90;99.90
49242;DHT22;35079;52.704;13.814;2023-04-25T01:37:11;8.00;99.90
49242;DHT22;35079;52.704;13.814;2023-04-25T01:39:38;8.20;99.90
49242;DHT22;35079;52.704;13.814;2023-04-25T01:42:04;8.10;99.90
49242;DHT22;35079;52.704;13.814;2023-04-25T01:44:29;8.30;99.90
49242;DHT22;35079;52.704;13.814;2023-04-25T01:46:55;8.30;99.90
49242;DHT22;35079;52.704;13.814;2023-04-25T01:49:21;8.40;99.90
49242;DHT22;35079;52.704;13.814;2023-04-25T01:51:46;8.40;99.90
49242;DHT22;35079;52.704;13.814;2023-04-25T01:54:13;8.50;99.90
49242;DHT22;35079;52.704;13.814;2023-04-25T01:56:39;8.60;99.90
49242;DHT22;35079;52.704;13.814;2023-04-25T01:59:05;8.70;99.90
49242;DHT22;35079;52.704;13.814;2023-04-25T02:01:32;8.70;99.90
49242;DHT22;35079;52.704;13.814;2023-04-25T02:03:58;8.70;99.90
49242;DHT22;35079;52.704;13.814;2023-04-25T02:06:23;8.70;99.90
49242;DHT22;35079;52.704;13.814;2023-04-25T02:08:49;8.70;99.90
49242;DHT22;35079;52.704;13.814;2023-04-25T02:11:14;8.70;99.90
49242;DHT22;35079;52.704;13.814;2023-04-25T02:13:40;8.70;99.90
49242;DHT22;35079;52.704;13.814;2023-04-25T02:16:06;8.80;99.90
49242;DHT22;35079;52.704;13.814;2023-04-25T02:18:31;8.50;99.90
49242;DHT22;35079;52.704;13.814;2023-04-25T02:20:59;8.60;99.90
49242;DHT22;35079;52.704;13.814;2023-04-25T02:23:25;8.70;99.90
49242;DHT22;35079;52.704;13.814;2023-04-25T02:25:51;8.60;99.90
49242;DHT22;35079;52.704;13.814;2023-04-25T02:28:17;8.60;99.90
49242;DHT22;35079;52.704;13.814;2023-04-25T02:30:42;8.60;99.90
49242;DHT22;35079;52.704;13.814;2023-04-25T02:33:09;8.70;99.90
49242;DHT22;35079;52.704;13.814;2023-04-25T02:35:34;8.70;99.90
49242;DHT22;35079;52.704;13.814;2023-04-25T02:38:00;8.70;99.90
49242;DHT22;35079;52.704;13.814;2023-04-25T02:40:26;8.80;99.90
49242;DHT22;35079;52.704;13.814;2023-04-25T02:42:51;8.80;99.90
49242;DHT22;35079;52.704;13.814;2023-04-25T02:45:17;8.90;99.90
49242;DHT22;35079;52.704;13.814;2023-04-25T02:47:43;8.80;99.90
49242;DHT22;35079;52.704;13.814;2023-04-25T02:50:08;8.90;99.90
49242;DHT22;35079;52.704;13.814;2023-04-25T02:52:34;8.70;99.90
49242;DHT22;35079;52.704;13.814;2023-04-25T02:55:00;8.90;99.90
49242;DHT22;35079;52.704;13.814;2023-04-25T02:57:26;8.90;99.90
49242;DHT22;35079;52.704;13.814;2023-04-25T02:59:51;8.80;99.90
49242;DHT22;35079;52.704;13.814;2023-04-25T03:02:17;8.70;99.90
49242;DHT22;35079;52.704;13.814;2023-04-25T03:04:42;8.90;99.90
49242;DHT22;35079;52.704;13.814;2023-04-25T03:07:08;8.80;99.90
49242;DHT22;35079;52.704;13.814;2023-04-25T03:09:34;8.80;99.90
49242;DHT22;35079;52.704;13.814;2023-04-25T03:12:00;8.80;99.90
49242;DHT22;35079;52.704;13.814;2023-04-25T03:14:26;8.80;99.90
49242;DHT22;35079;52.704;13.814;2023-04-25T03:16:52;8.90;99.90
49242;DHT22;35079;52.704;13.814;2023-04-25T03:19:18;8.90;99.90
49242;DHT22;35079;52.704;13.814;2023-04-25T03:21:44;8.90;99.90
49242;DHT22;35079;52.704;13.814;2023-04-25T03:24:10;8.80;99.90
49242;DHT22;35079;52.704;13.814;2023-04-25T03:26:36;8.90;99.90
49242;DHT22;35079;52.704;13.814;2023-04-25T03:29:02;8.90;99.90
49242;DHT22;35079;52.704;13.814;2023-04-25T03:31:28;8.80;99.90
49242;DHT22;35079;52.704;13.814;2023-04-25T03:33:53;8.90;99.90
49242;DHT22;35079;52.704;13.814;2023-04-25T03:36:19;8.70;99.90
49242;DHT22;35079;52.704;13.814;2023-04-25T03:38:44;8.90;99.90
49242;DHT22;35079;52.704;13.814;2023-04-25T03:41:11;8.80;99.90
49242;DHT22;35079;52.704;13.814;2023-04-25T03:43:37;8.90;99.90
49242;DHT22;35079;52.704;13.814;2023-04-25T03:46:02;8.70;99.90
49242;DHT22;35079;52.704;13.814;2023-04-25T03:48:28;8.70;99.90
49242;DHT22;35079;52.704;13.814;2023-04-25T03:50:54;8.70;99.90
49242;DHT22;35079;52.704;13.814;2023-04-25T03:53:20;8.80;99.90
49242;DHT22;35079;52.704;13.814;2023-04-25T03:55:45;8.70;99.90
49242;DHT22;35079;52.704;13.814;2023-04-25T03:58:11;8.80;99.90
49242;DHT22;35079;52.704;13.814;2023-04-25T04:00:37;8.90;99.90
49242;DHT22;35079;52.704;13.814;2023-04-25T04:03:02;8.70;99.90
49242;DHT22;35079;52.704;13.814;2023-04-25T04:05:28;8.80;99.90
49242;DHT22;35079;52.704;13.814;2023-04-25T04:07:54;8.70;99.90
49242;DHT22;35079;52.704;13.814;2023-04-25T04:10:20;8.80;99.90
49242;DHT22;35079;52.704;13.814;2023-04-25T04:12:46;8.90;99.90
49242;DHT22;35079;52.704;13.814;2023-04-25T04:15:11;8.90;99.90
49242;DHT22;35079;52.704;13.814;2023-04-25T04:17:37;8.80;99.90
49242;DHT22;35079;52.704;13.814;2023-04-25T04:20:03;8.90;99.90
49242;DHT22;35079;52.704;13.814;2023-04-25T04:22:29;8.90;99.90
49242;DHT22;35079;52.704;13.814;2023-04-25T04:24:55;8.80;99.90
49242;DHT22;35079;52.704;13.814;2023-04-25T04:27:22;8.80;99.90
49242;DHT22;35079;52.704;13.814;2023-04-25T04:29:48;8.80;99.90
49242;DHT22;35079;52.704;13.814;2023-04-25T04:32:15;9.00;99.90
49242;DHT22;35079;52.704;13.814;2023-04-25T04:34:41;8.80;99.90
49242;DHT22;35079;52.704;13.814;2023-04-25T04:37:07;8.80;99.90
49242;DHT22;35079;52.704;13.814;2023-04-25T04:39:33;8.90;99.90
49242;DHT22;35079;52.704;13.814;2023-04-25T04:41:59;8.90;99.90
49242;DHT22;35079;52.704;13.814;2023-04-25T04:44:27;8.90;99.90
49242;DHT22;35079;52.704;13.814;2023-04-25T04:46:53;9.00;99.90
49242;DHT22;35079;52.704;13.814;2023-04-25T04:49:20;9.00;99.90
49242;DHT22;35079;52.704;13.814;2023-04-25T04:51:45;9.00;99.90
49242;DHT22;35079;52.704;13.814;2023-04-25T04:54:12;9.00;99.90
49242;DHT22;35079;52.704;13.814;2023-04-25T04:56:37;9.00;99.90
49242;DHT22;35079;52.704;13.814;2023-04-25T04:59:03;8.90;99.90
49242;DHT22;35079;52.704;13.814;2023-04-25T05:01:29;9.00;99.90
49242;DHT22;35079;52.704;13.814;2023-04-25T05:03:57;9.00;99.90
49242;DHT22;35079;52.704;13.814;2023-04-25T05:06:26;9.10;99.90
49242;DHT22;35079;52.704;13.814;2023-04-25T05:08:52;9.30;99.90
49242;DHT22;35079;52.704;13.814;2023-04-25T05:11:22;9.30;99.90
49242;DHT22;35079;52.704;13.814;2023-04-25T05:13:49;9.40;99.90
49242;DHT22;35079;52.704;13.814;2023-04-25T05:16:14;9.40;99.90
49242;DHT22;35079;52.704;13.814;2023-04-25T05:18:40;9.40;99.90
49242;DHT22;35079;52.704;13.814;2023-04-25T05:21:06;9.40;99.90
49242;DHT22;35079;52.704;13.814;2023-04-25T05:23:32;9.50;99.90
49242;DHT22;35079;52.704;13.814;2023-04-25T05:25:59;9.50;99.90
49242;DHT22;35079;52.704;13.814;2023-04-25T05:28:24;9.70;99.90
49242;DHT22;35079;52.704;13.814;2023-04-25T05:30:50;9.70;99.90
49242;DHT22;35079;52.704;13.814;2023-04-25T05:33:16;9.70;99.90
49242;DHT22;35079;52.704;13.814;2023-04-25T05:35:42;9.70;99.90
49242;DHT22;35079;52.704;13.814;2023-04-25T05:38:07;9.60;99.90
49242;DHT22;35079;52.704;13.814;2023-04-25T05:40:33;9.60;99.90
49242;DHT22;35079;52.704;13.814;2023-04-25T05:42:59;9.70;99.90
49242;DHT22;35079;52.704;13.814;2023-04-25T05:45:25;9.60;99.90
49242;DHT22;35079;52.704;13.814;2023-04-25T05:47:50;9.60;99.90
49242;DHT22;35079;52.704;13.814;2023-04-25T05:50:16;9.60;99.90
49242;DHT22;35079;52.704;13.814;2023-04-25T05:52:42;9.60;99.90
49242;DHT22;35079;52.704;13.814;2023-04-25T05:55:08;9.50;99.90
49242;DHT22;35079;52.704;13.814;2023-04-25T05:57:34;9.50;99.90
49242;DHT22;35079;52.704;13.814;2023-04-25T05:59:59;9.50;99.90
49242;DHT22;35079;52.704;13.814;2023-04-25T06:02:25;9.50;99.90
49242;DHT22;35079;52.704;13.814;2023-04-25T06:04:51;9.40;99.90
49242;DHT22;35079;52.704;13.814;2023-04-25T06:07:18;9.50;99.90
49242;DHT22;35079;52.704;13.814;2023-04-25T06:09:44;9.50;99.90
49242;DHT22;35079;52.704;13.814;2023-04-25T06:12:10;9.60;99.90
49242;DHT22;35079;52.704;13.814;2023-04-25T06:14:35;9.60;99.90
49242;DHT22;35079;52.704;13.814;2023-04-25T06:17:02;9.60;99.90
49242;DHT22;35079;52.704;13.814;2023-04-25T06:19:35;9.60;99.90
49242;DHT22;35079;52.704;13.814;2023-04-25T06:22:01;9.60;99.90
49242;DHT22;35079;52.704;13.814;2023-04-25T06:24:27;9.60;99.90
49242;DHT22;35079;52.704;13.814;2023-04-25T06:26:54;9.80;99.90
49242;DHT22;35079;52.704;13.814;2023-04-25T06:29:19;9.60;99.90
49242;DHT22;35079;52.704;13.814;2023-04-25T06:31:45;9.50;99.90
49242;DHT22;35079;52.704;13.814;2023-04-25T06:34:11;9.50;99.90
49242;DHT22;35079;52.704;13.814;2023-04-25T06:36:37;9.50;99.90
49242;DHT22;35079;52.704;13.814;2023-04-25T06:39:05;9.50;99.90
49242;DHT22;35079;52.704;13.814;2023-04-25T06:41:36;9.40;99.90
49242;DHT22;35079;52.704;13.814;2023-04-25T06:44:02;9.30;99.90
49242;DHT22;35079;52.704;13.814;2023-04-25T06:46:28;9.30;99.90
49242;DHT22;35079;52.704;13.814;2023-04-25T06:48:53;9.50;99.90
49242;DHT22;35079;52.704;13.814;2023-04-25T06:51:22;9.40;99.90
49242;DHT22;35079;52.704;13.814;2023-04-25T06:53:49;9.40;99.90
49242;DHT22;35079;52.704;13.814;2023-04-25T06:56:18;9.50;99.90
49242;DHT22;35079;52.704;13.814;2023-04-25T06:58:44;9.40;99.90
49242;DHT22;35079;52.704;13.814;2023-04-25T07:01:10;9.40;99.90
49242;DHT22;35079;52.704;13.814;2023-04-25T07:03:35;9.50;99.90
49242;DHT22;35079;52.704;13.814;2023-04-25T07:06:02;9.40;99.90
49242;DHT22;35079;52.704;13.814;2023-04-25T07:08:29;9.30;99.90
49242;DHT22;35079;52.704;13.814;2023-04-25T07:10:55;9.30;99.90
49242;DHT22;35079;52.704;13.814;2023-04-25T07:13:21;9.40;99.90
49242;DHT22;35079;52.704;13.814;2023-04-25T07:15:46;9.30;99.90
49242;DHT22;35079;52.704;13.814;2023-04-25T07:18:13;9.40;99.90
49242;DHT22;35079;52.704;13.814;2023-04-25T07:20:39;9.50;99.90
49242;DHT22;35079;52.704;13.814;2023-04-25T07:23:05;9.40;99.90
49242;DHT22;35079;52.704;13.814;2023-04-25T07:25:33;9.40;99.90
49242;DHT22;35079;52.704;13.814;2023-04-25T07:28:00;9.40;99.90
49242;DHT22;35079;52.704;13.814;2023-04-25T07:30:26;9.40;99.90
49242;DHT22;35079;52.704;13.814;2023-04-25T07:32:55;9.50;99.90
49242;DHT22;35079;52.704;13.814;2023-04-25T07:35:21;9.40;99.90
49242;DHT22;35079;52.704;13.814;2023-04-25T07:37:46;9.60;99.90
49242;DHT22;35079;52.704;13.814;2023-04-25T07:40:12;9.50;99.90
49242;DHT22;35079;52.704;13.814;2023-04-25T07:43:09;9.50;99.90
49242;DHT22;35079;52.704;13.814;2023-04-25T07:45:37;9.80;99.90
49242;DHT22;35079;52.704;13.814;2023-04-25T07:48:03;9.80;99.90
49242;DHT22;35079;52.704;13.814;2023-04-25T07:50:29;9.70;99.90
49242;DHT22;35079;52.704;13.814;2023-04-25T07:52:55;9.80;99.90
49242;DHT22;35079;52.704;13.814;2023-04-25T07:55:21;9.60;99.90
49242;DHT22;35079;52.704;13.814;2023-04-25T07:57:47;9.40;99.90
49242;DHT22;35079;52.704;13.814;2023-04-25T08:00:13;9.50;99.90
49242;DHT22;35079;52.704;13.814;2023-04-25T08:02:40;9.40;99.90
49242;DHT22;35079;52.704;13.814;2023-04-25T08:05:06;9.40;99.90
49242;DHT22;35079;52.704;13.814;2023-04-25T08:07:34;9.30;99.90
49242;DHT22;35079;52.704;13.814;2023-04-25T08:10:00;9.40;99.90
49242;DHT22;35079;52.704;13.814;2023-04-25T08:12:26;9.40;99.90
49242;DHT22;35079;52.704;13.814;2023-04-25T08:14:51;9.50;99.90
49242;DHT22;35079;52.704;13.814;2023-04-25T08:17:17;9.80;99.90
49242;DHT22;35079;52.704;13.814;2023-04-25T08:19:43;10.00;99.90
49242;DHT22;35079;52.704;13.814;2023-04-25T08:22:09;10.00;99.90
49242;DHT22;35079;52.704;13.814;2023-04-25T08:24:34;10.00;99.90
49242;DHT22;35079;52.704;13.814;2023-04-25T08:27:00;10.00;99.90
49242;DHT22;35079;52.704;13.814;2023-04-25T08:29:26;10.00;99.90
49242;DHT22;35079;52.704;13.814;2023-04-25T08:31:51;9.80;99.90
49242;DHT22;35079;52.704;13.814;2023-04-25T08:34:18;9.90;99.90
49242;DHT22;35079;52.704;13.814;2023-04-25T08:36:44;10.10;99.90
49242;DHT22;35079;52.704;13.814;2023-04-25T08:39:10;9.90;99.90
49242;DHT22;35079;52.704;13.814;2023-04-25T08:41:40;10.10;99.90
49242;DHT22;35079;52.704;13.814;2023-04-25T08:44:07;10.20;99.90
49242;DHT22;35079;52.704;13.814;2023-04-25T08:46:35;10.20;99.90
49242;DHT22;35079;52.704;13.814;2023-04-25T08:49:03;10.00;99.90
49242;DHT22;35079;52.704;13.814;2023-04-25T08:51:31;10.00;99.90
49242;DHT22;35079;52.704;13.814;2023-04-25T08:54:09;9.90;99.90
49242;DHT22;35079;52.704;13.814;2023-04-25T08:56:36;9.90;99.90
49242;DHT22;35079;52.704;13.814;2023-04-25T08:59:03;9.80;99.90
49242;DHT22;35079;52.704;13.814;2023-04-25T09:01:29;9.90;99.90
49242;DHT22;35079;52.704;13.814;2023-04-25T09:03:54;10.10;99.90
49242;DHT22;35079;52.704;13.814;2023-04-25T09:06:21;10.70;99.90
49242;DHT22;35079;52.704;13.814;2023-04-25T09:08:50;11.30;99.90
49242;DHT22;35079;52.704;13.814;2023-04-25T09:11:15;12.20;99.90
49242;DHT22;35079;52.704;13.814;2023-04-25T09:13:41;12.60;99.90
49242;DHT22;35079;52.704;13.814;2023-04-25T09:16:07;13.30;99.90
49242;DHT22;35079;52.704;13.814;2023-04-25T09:18:34;14.10;99.90
49242;DHT22;35079;52.704;13.814;2023-04-25T09:21:10;15.30;99.90
49242;DHT22;35079;52.704;13.814;2023-04-25T09:23:48;16.00;99.30
49242;DHT22;35079;52.704;13.814;2023-04-25T09:26:15;15.90;95.50
49242;DHT22;35079;52.704;13.814;2023-04-25T09:28:42;16.20;99.10
49242;DHT22;35079;52.704;13.814;2023-04-25T09:31:10;16.20;94.40
49242;DHT22;35079;52.704;13.814;2023-04-25T09:33:37;16.30;93.00
49242;DHT22;35079;52.704;13.814;2023-04-25T09:36:10;17.20;93.80
49242;DHT22;35079;52.704;13.814;2023-04-25T09:38:45;18.00;78.60
49242;DHT22;35079;52.704;13.814;2023-04-25T09:41:11;18.00;72.70
49242;DHT22;35079;52.704;13.814;2023-04-25T09:43:39;17.80;75.70
49242;DHT22;35079;52.704;13.814;2023-04-25T09:46:11;17.50;73.40
49242;DHT22;35079;52.704;13.814;2023-04-25T09:48:37;17.10;70.90
49242;DHT22;35079;52.704;13.814;2023-04-25T09:53:28;16.00;72.40
49242;DHT22;35079;52.704;13.814;2023-04-25T09:55:55;16.00;75.10
49242;DHT22;35079;52.704;13.814;2023-04-25T09:58:24;15.70;73.20
49242;DHT22;35079;52.704;13.814;2023-04-25T10:00:50;15.40;78.30
49242;DHT22;35079;52.704;13.814;2023-04-25T10:03:17;15.30;76.00
49242;DHT22;35079;52.704;13.814;2023-04-25T10:05:44;15.20;75.50
49242;DHT22;35079;52.704;13.814;2023-04-25T10:08:11;14.40;75.30
49242;DHT22;35079;52.704;13.814;2023-04-25T10:10:38;13.90;75.60
49242;DHT22;35079;52.704;13.814;2023-04-25T10:13:05;13.40;76.60
49242;DHT22;35079;52.704;13.814;2023-04-25T10:15:35;13.10;77.90
49242;DHT22;35079;52.704;13.814;2023-04-25T10:18:02;13.00;78.50
49242;DHT22;35079;52.704;13.814;2023-04-25T10:20:28;12.80;78.80
49242;DHT22;35079;52.704;13.814;2023-04-25T10:22:58;12.90;76.60
49242;DHT22;35079;52.704;13.814;2023-04-25T10:25:28;12.90;77.60
49242;DHT22;35079;52.704;13.814;2023-04-25T10:27:54;13.30;83.40
49242;DHT22;35079;52.704;13.814;2023-04-25T10:30:20;14.10;80.40
49242;DHT22;35079;52.704;13.814;2023-04-25T10:32:45;15.00;75.10
49242;DHT22;35079;52.704;13.814;2023-04-25T10:35:18;15.40;72.60
49242;DHT22;35079;52.704;13.814;2023-04-25T10:38:02;16.00;70.80
49242;DHT22;35079;52.704;13.814;2023-04-25T10:40:28;16.60;70.80
49242;DHT22;35079;52.704;13.814;2023-04-25T10:42:54;16.90;69.30
49242;DHT22;35079;52.704;13.814;2023-04-25T10:45:21;16.70;71.20
49242;DHT22;35079;52.704;13.814;2023-04-25T10:47:48;16.90;65.50
49242;DHT22;35079;52.704;13.814;2023-04-25T10:50:17;16.70;65.50
49242;DHT22;35079;52.704;13.814;2023-04-25T10:52:42;16.60;65.40
49242;DHT22;35079;52.704;13.814;2023-04-25T10:55:09;16.40;66.30
49242;DHT22;35079;52.704;13.814;2023-04-25T10:57:39;16.50;64.40
49242;DHT22;35079;52.704;13.814;2023-04-25T11:00:06;16.40;65.30
49242;DHT22;35079;52.704;13.814;2023-04-25T11:02:37;17.30;65.10
49242;DHT22;35079;52.704;13.814;2023-04-25T11:05:03;18.00;63.90
49242;DHT22;35079;52.704;13.814;2023-04-25T11:07:37;17.30;58.60
49242;DHT22;35079;52.704;13.814;2023-04-25T11:10:05;16.50;64.50
49242;DHT22;35079;52.704;13.814;2023-04-25T11:12:31;15.20;65.10
49242;DHT22;35079;52.704;13.814;2023-04-25T11:15:02;15.10;65.40
49242;DHT22;35079;52.704;13.814;2023-04-25T11:17:28;14.90;65.90
49242;DHT22;35079;52.704;13.814;2023-04-25T11:19:54;14.50;65.40
49242;DHT22;35079;52.704;13.814;2023-04-25T11:22:21;13.90;66.10
49242;DHT22;35079;52.704;13.814;2023-04-25T11:24:47;13.80;68.80
49242;DHT22;35079;52.704;13.814;2023-04-25T11:27:13;13.40;69.40
49242;DHT22;35079;52.704;13.814;2023-04-25T11:29:39;13.10;70.10
49242;DHT22;35079;52.704;13.814;2023-04-25T11:32:04;12.80;68.50
49242;DHT22;35079;52.704;13.814;2023-04-25T11:34:31;12.50;69.50
49242;DHT22;35079;52.704;13.814;2023-04-25T11:36:58;12.20;70.30
49242;DHT22;35079;52.704;13.814;2023-04-25T11:39:25;12.50;71.20
49242;DHT22;35079;52.704;13.814;2023-04-25T11:41:52;12.30;70.50
49242;DHT22;35079;52.704;13.814;2023-04-25T11:44:19;12.40;71.20
49242;DHT22;35079;52.704;13.814;2023-04-25T11:46:45;12.50;72.30
49242;DHT22;35079;52.704;13.814;2023-04-25T11:49:11;12.70;72.70
49242;DHT22;35079;52.704;13.814;2023-04-25T11:51:41;12.90;70.10
49242;DHT22;35079;52.704;13.814;2023-04-25T11:54:07;12.90;71.00
49242;DHT22;35079;52.704;13.814;2023-04-25T11:56:33;12.90;69.80
49242;DHT22;35079;52.704;13.814;2023-04-25T11:59:01;12.80;71.80
49242;DHT22;35079;52.704;13.814;2023-04-25T12:01:31;12.80;69.90
49242;DHT22;35079;52.704;13.814;2023-04-25T12:03:58;12.90;69.60
49242;DHT22;35079;52.704;13.814;2023-04-25T12:06:27;13.10;70.00
49242;DHT22;35079;52.704;13.814;2023-04-25T12:09:04;13.20;69.80
49242;DHT22;35079;52.704;13.814;2023-04-25T12:11:40;13.50;69.20
49242;DHT22;35079;52.704;13.814;2023-04-25T12:14:05;14.00;69.30
49242;DHT22;35079;52.704;13.814;2023-04-25T12:16:45;14.40;67.00
49242;DHT22;35079;52.704;13.814;2023-04-25T12:19:15;14.60;67.00
49242;DHT22;35079;52.704;13.814;2023-04-25T12:21:41;14.70;64.70
49242;DHT22;35079;52.704;13.814;2023-04-25T12:24:17;14.50;65.50
49242;DHT22;35079;52.704;13.814;2023-04-25T12:29:26;14.50;64.90
49242;DHT22;35079;52.704;13.814;2023-04-25T12:31:53;14.10;63.60
49242;DHT22;35079;52.704;13.814;2023-04-25T12:34:20;14.10;63.70
49242;DHT22;35079;52.704;13.814;2023-04-25T12:36:47;13.90;64.00
49242;DHT22;35079;52.704;13.814;2023-04-25T12:39:19;13.70;66.00
49242;DHT22;35079;52.704;13.814;2023-04-25T12:41:46;13.30;65.60
49242;DHT22;35079;52.704;13.814;2023-04-25T12:44:12;13.30;64.70
49242;DHT22;35079;52.704;13.814;2023-04-25T12:46:38;13.10;67.90
49242;DHT22;35079;52.704;13.814;2023-04-25T12:49:04;13.20;67.50
49242;DHT22;35079;52.704;13.814;2023-04-25T12:51:31;13.40;67.10
49242;DHT22;35079;52.704;13.814;2023-04-25T12:53:58;13.40;65.20
49242;DHT22;35079;52.704;13.814;2023-04-25T12:56:28;13.30;64.10
49242;DHT22;35079;52.704;13.814;2023-04-25T12:58:54;13.20;63.70
49242;DHT22;35079;52.704;13.814;2023-04-25T13:01:23;12.90;64.70
49242;DHT22;35079;52.704;13.814;2023-04-25T13:03:49;13.10;66.20
49242;DHT22;35079;52.704;13.814;2023-04-25T13:06:16;12.70;64.90
49242;DHT22;35079;52.704;13.814;2023-04-25T13:08:42;12.50;65.60
49242;DHT22;35079;52.704;13.814;2023-04-25T13:11:08;12.30;67.50
49242;DHT22;35079;52.704;13.814;2023-04-25T13:13:34;12.10;66.80
49242;DHT22;35079;52.704;13.814;2023-04-25T13:16:01;12.30;67.50
49242;DHT22;35079;52.704;13.814;2023-04-25T13:18:28;12.50;67.70
49242;DHT22;35079;52.704;13.814;2023-04-25T13:20:53;12.60;67.70
49242;DHT22;35079;52.704;13.814;2023-04-25T13:23:20;12.50;67.60
49242;DHT22;35079;52.704;13.814;2023-04-25T13:25:46;12.30;68.10
49242;DHT22;35079;52.704;13.814;2023-04-25T13:28:12;12.10;67.90
49242;DHT22;35079;52.704;13.814;2023-04-25T13:30:38;12.30;70.10
49242;DHT22;35079;52.704;13.814;2023-04-25T13:33:04;12.30;70.00
49242;DHT22;35079;52.704;13.814;2023-04-25T13:35:33;12.30;70.50
49242;DHT22;35079;52.704;13.814;2023-04-25T13:37:58;12.50;71.70
49242;DHT22;35079;52.704;13.814;2023-04-25T13:40:24;12.40;71.00
49242;DHT22;35079;52.704;13.814;2023-04-25T13:42:50;12.40;71.70
49242;DHT22;35079;52.704;13.814;2023-04-25T13:45:16;12.40;67.00
49242;DHT22;35079;52.704;13.814;2023-04-25T13:47:42;12.20;69.20
49242;DHT22;35079;52.704;13.814;2023-04-25T13:50:08;12.20;68.10
49242;DHT22;35079;52.704;13.814;2023-04-25T13:52:35;12.30;70.80
49242;DHT22;35079;52.704;13.814;2023-04-25T13:55:01;12.50;68.60
49242;DHT22;35079;52.704;13.814;2023-04-25T13:57:32;12.30;68.40
49242;DHT22;35079;52.704;13.814;2023-04-25T13:59:57;12.20;69.90
49242;DHT22;35079;52.704;13.814;2023-04-25T14:02:23;12.10;72.20
49242;DHT22;35079;52.704;13.814;2023-04-25T14:04:48;12.30;74.00
49242;DHT22;35079;52.704;13.814;2023-04-25T14:07:14;12.40;73.80
49242;DHT22;35079;52.704;13.814;2023-04-25T14:09:44;12.40;71.70
49242;DHT22;35079;52.704;13.814;2023-04-25T14:12:09;12.40;71.90
49242;DHT22;35079;52.704;13.814;2023-04-25T14:14:36;12.20;73.70
49242;DHT22;35079;52.704;13.814;2023-04-25T14:17:03;11.90;75.30
49242;DHT22;35079;52.704;13.814;2023-04-25T14:19:28;11.90;74.70
49242;DHT22;35079;52.704;13.814;2023-04-25T14:21:54;11.90;74.10
49242;DHT22;35079;52.704;13.814;2023-04-25T14:24:20;11.90;73.50
49242;DHT22;35079;52.704;13.814;2023-04-25T14:26:45;11.60;73.40
49242;DHT22;35079;52.704;13.814;2023-04-25T14:29:11;11.40;76.90
49242;DHT22;35079;52.704;13.814;2023-04-25T14:31:37;11.40;78.00
49242;DHT22;35079;52.704;13.814;2023-04-25T14:34:04;11.20;78.10
49242;DHT22;35079;52.704;13.814;2023-04-25T14:36:31;11.10;78.10
49242;DHT22;35079;52.704;13.814;2023-04-25T14:38:57;10.90;79.50
49242;DHT22;35079;52.704;13.814;2023-04-25T14:41:26;10.70;78.70
49242;DHT22;35079;52.704;13.814;2023-04-25T14:43:52;10.70;79.70
49242;DHT22;35079;52.704;13.814;2023-04-25T14:46:19;10.60;80.80
49242;DHT22;35079;52.704;13.814;2023-04-25T14:48:45;10.60;80.70
49242;DHT22;35079;52.704;13.814;2023-04-25T14:51:12;10.70;80.20
49242;DHT22;35079;52.704;13.814;2023-04-25T14:53:38;11.00;78.20
49242;DHT22;35079;52.704;13.814;2023-04-25T14:56:03;10.90;79.30
49242;DHT22;35079;52.704;13.814;2023-04-25T14:58:31;11.10;79.50
49242;DHT22;35079;52.704;13.814;2023-04-25T15:00:56;11.20;80.20
49242;DHT22;35079;52.704;13.814;2023-04-25T15:03:22;11.30;78.10
49242;DHT22;35079;52.704;13.814;2023-04-25T15:05:48;11.70;78.30
49242;DHT22;35079;52.704;13.814;2023-04-25T15:08:13;11.80;77.60
49242;DHT22;35079;52.704;13.814;2023-04-25T15:10:39;11.90;75.40
49242;DHT22;35079;52.704;13.814;2023-04-25T15:13:05;12.20;78.10
49242;DHT22;35079;52.704;13.814;2023-04-25T15:15:30;12.40;77.10
49242;DHT22;35079;52.704;13.814;2023-04-25T15:17:57;12.40;77.50
49242;DHT22;35079;52.704;13.814;2023-04-25T15:20:23;12.50;76.70
49242;DHT22;35079;52.704;13.814;2023-04-25T15:22:48;12.10;77.70
49242;DHT22;35079;52.704;13.814;2023-04-25T15:25:15;12.00;79.20
49242;DHT22;35079;52.704;13.814;2023-04-25T15:27:43;12.10;77.30